Pagrindinis puslapis
METAR-TAF:

METAR-TAF

Oro uostai :

San Jose de Chiquitos, Bolivija

platuma: 17-48S, ilguma: 060-44W, Aukštis: 284 m

Dabartinis oras

Ataskaita buvo paskelbta 1 valandą ir 3 minutes, ne 14:00 UTC
Vėjas 6 kt iš Pietų
Temperatūra 18°C
Drėgmė 73%
Slėgis 1023 hPa
Matomumas 10 km arba daugiau
Išsisklaidę debesys ne aukštis 1500 ft

METAR: SLJE 251400Z 18006KT 9999 SCT015 18/13 Q1023

Laikas: 11:03 (15:03 UTC)


TAF: trūkstamas

Orai ataskaitas ir orų prognozės (METAR, TAF).

turimą stotys yra geltonos ir raudonos taškus žemėlapyje.

Perkelti pele per norėdami pamatyti stoties vardą.

Tada spustelėkite, norėdami matyti oro stebėjimo ir prognozės.

Norėdami pakeisti žemėlapį: spustelėkite ant žalios mygtukų su juodo kryžiaus žemyn,; žalią mygtuką su brūkšneliu, jei norite nutolinti; arba žalių rodyklių gretimoms žemėlapius.


METAR-TAF: